Time;durP1;ratioP1;P1;durP2;ratioP2;P2;SDS_P1;SDS_P2;PMS_P1;PMS_P2;Temp;Humidity;BMP_temperature;BMP_pressure;BME280_temperature;BME280_humidity;BME280_pressure;Samples;Min_cycle;Max_cycle;Signal;HPM_P1;HPM_P2
2022/07/12 00:00:25;;;;;;;5.10;3.13;;;12.00;99.90;;;;;;4213116;28;20187;-77
2022/07/12 00:02:26;;;;;;;4.27;3.07;;;11.90;99.90;;;;;;4212233;28;20187;-77
2022/07/12 00:04:26;;;;;;;5.43;2.97;;;11.90;99.90;;;;;;4212779;28;20199;-77
2022/07/12 00:06:27;;;;;;;4.27;3.47;;;11.90;99.90;;;;;;4212814;28;20230;-77
2022/07/12 00:08:28;;;;;;;3.47;3.17;;;11.80;99.90;;;;;;4212749;28;20967;-77
2022/07/12 00:10:28;;;;;;;3.60;3.20;;;11.80;99.90;;;;;;4211377;28;20214;-77
2022/07/12 00:12:29;;;;;;;3.73;3.10;;;11.70;99.90;;;;;;4212121;28;20609;-77
2022/07/12 00:14:29;;;;;;;4.33;3.50;;;11.80;99.90;;;;;;4212679;28;20289;-77
2022/07/12 00:16:30;;;;;;;4.60;3.20;;;11.70;99.90;;;;;;4212589;28;20824;-77
2022/07/12 00:18:30;;;;;;;3.17;2.87;;;11.80;99.90;;;;;;4212657;28;20236;-77
2022/07/12 00:20:31;;;;;;;3.87;3.23;;;11.80;99.90;;;;;;4212674;28;20795;-77
2022/07/12 00:22:32;;;;;;;4.03;3.20;;;11.80;99.90;;;;;;4212162;28;20194;-77
2022/07/12 00:24:33;;;;;;;3.50;3.20;;;11.70;99.90;;;;;;4213023;28;20207;-77
2022/07/12 00:26:33;;;;;;;3.90;3.50;;;11.70;99.90;;;;;;4211509;28;20515;-77
2022/07/12 00:28:34;;;;;;;3.87;3.17;;;11.60;99.90;;;;;;4213801;28;20658;-76
2022/07/12 00:30:34;;;;;;;3.90;3.40;;;11.70;99.90;;;;;;4215936;28;20229;-76
2022/07/12 00:32:36;;;;;;;4.07;3.27;;;11.60;99.90;;;;;;4215242;28;20832;-76
2022/07/12 00:34:36;;;;;;;5.53;3.10;;;11.60;99.90;;;;;;4215966;28;20199;-77
2022/07/12 00:36:37;;;;;;;3.40;3.10;;;11.50;99.90;;;;;;4215900;28;20190;-77
2022/07/12 00:38:37;;;;;;;4.13;3.20;;;11.50;99.90;;;;;;4215707;28;20266;-77
2022/07/12 00:40:38;;;;;;;4.30;3.30;;;11.50;99.90;;;;;;4215618;28;20167;-76
2022/07/12 00:42:38;;;;;;;5.00;3.43;;;11.50;99.90;;;;;;4215324;28;20183;-75
2022/07/12 00:44:39;;;;;;;5.17;3.80;;;11.40;99.90;;;;;;4215687;28;20221;-75
2022/07/12 00:46:40;;;;;;;4.60;3.30;;;11.40;99.90;;;;;;4215612;28;20189;-75
2022/07/12 00:48:40;;;;;;;4.63;3.67;;;11.40;99.90;;;;;;4215798;28;20190;-76
2022/07/12 00:50:41;;;;;;;5.70;3.80;;;11.40;99.90;;;;;;4215415;28;20206;-75
2022/07/12 00:52:43;;;;;;;6.17;3.80;;;11.40;99.90;;;;;;4215398;28;20552;-76
2022/07/12 00:54:44;;;;;;;4.53;3.70;;;11.30;99.90;;;;;;4215580;28;20211;-75
2022/07/12 00:56:45;;;;;;;4.10;3.27;;;11.30;99.90;;;;;;4215584;28;20650;-75
2022/07/12 00:58:45;;;;;;;3.73;3.13;;;11.40;99.90;;;;;;4215491;28;20179;-76
2022/07/12 01:00:46;;;;;;;4.20;3.47;;;11.30;99.90;;;;;;4214850;28;20186;-75
2022/07/12 01:02:47;;;;;;;4.53;3.40;;;11.30;99.90;;;;;;4214156;28;20183;-75
2022/07/12 01:04:48;;;;;;;3.47;3.17;;;11.30;99.90;;;;;;4215528;28;20198;-75
2022/07/12 01:06:50;;;;;;;3.57;3.13;;;11.30;99.90;;;;;;4215429;28;20190;-76
2022/07/12 01:08:50;;;;;;;8.30;3.57;;;11.30;99.90;;;;;;4215311;28;20191;-75
2022/07/12 01:10:51;;;;;;;5.03;3.83;;;11.30;99.90;;;;;;4214677;28;20264;-75
2022/07/12 01:12:52;;;;;;;4.03;3.27;;;11.30;99.90;;;;;;4215254;28;20273;-76
2022/07/12 01:14:53;;;;;;;4.13;3.73;;;11.20;99.90;;;;;;4215238;28;20672;-76
2022/07/12 01:16:54;;;;;;;4.30;3.53;;;11.20;99.90;;;;;;4215133;28;20177;-75
2022/07/12 01:18:55;;;;;;;4.20;3.33;;;11.20;99.90;;;;;;4215253;28;20178;-76
2022/07/12 01:20:56;;;;;;;4.60;3.57;;;11.30;99.90;;;;;;4213814;28;20199;-75
2022/07/12 01:22:58;;;;;;;4.17;3.10;;;11.20;99.90;;;;;;4215549;28;20592;-76
2022/07/12 01:25:00;;;;;;;4.47;3.30;;;11.20;99.90;;;;;;4215072;28;20699;-75
2022/07/12 01:27:06;;;;;;;4.93;3.57;;;11.20;99.90;;;;;;4214407;28;20187;-75
2022/07/12 01:29:08;;;;;;;4.97;3.60;;;11.20;99.90;;;;;;4213740;28;20652;-76
2022/07/12 01:31:08;;;;;;;5.00;3.87;;;11.20;99.90;;;;;;4213440;28;20195;-75
2022/07/12 01:33:09;;;;;;;4.47;3.17;;;11.20;99.90;;;;;;4214135;28;20174;-76
2022/07/12 01:35:10;;;;;;;4.00;3.60;;;11.20;99.90;;;;;;4213999;28;20183;-75
2022/07/12 01:37:14;;;;;;;5.03;3.60;;;11.20;99.90;;;;;;4214281;28;20174;-75
2022/07/12 01:39:14;;;;;;;4.53;3.80;;;11.20;99.90;;;;;;4206327;28;20256;-75
2022/07/12 01:41:16;;;;;;;5.07;3.70;;;11.20;99.90;;;;;;4196543;28;20183;-75
2022/07/12 01:43:17;;;;;;;5.60;4.10;;;11.10;99.90;;;;;;4197156;28;20214;-76
2022/07/12 01:45:17;;;;;;;4.23;3.50;;;11.10;99.90;;;;;;4197448;28;20646;-75
2022/07/12 01:47:19;;;;;;;4.20;3.70;;;11.20;99.90;;;;;;4197206;28;20190;-75
2022/07/12 01:49:20;;;;;;;8.30;3.40;;;11.20;99.90;;;;;;4197071;28;20179;-75
2022/07/12 01:51:20;;;;;;;5.07;4.40;;;11.20;99.90;;;;;;4196372;28;20209;-75
2022/07/12 01:53:21;;;;;;;4.83;3.83;;;11.20;99.90;;;;;;4196814;28;20263;-75
2022/07/12 01:55:23;;;;;;;4.13;3.57;;;11.20;99.90;;;;;;4195689;28;20187;-76
2022/07/12 01:57:25;;;;;;;3.70;3.40;;;11.10;99.90;;;;;;4196955;28;20557;-75
2022/07/12 01:59:25;;;;;;;4.23;3.60;;;11.10;99.90;;;;;;4197053;28;20172;-75
2022/07/12 02:01:27;;;;;;;5.50;3.90;;;11.10;99.90;;;;;;4196408;28;20186;-75
2022/07/12 02:03:27;;;;;;;3.83;3.50;;;11.10;99.90;;;;;;4195443;28;20242;-75
2022/07/12 02:05:28;;;;;;;4.23;3.50;;;11.20;99.90;;;;;;4195447;28;20580;-75
2022/07/12 02:07:29;;;;;;;4.47;3.70;;;11.10;99.90;;;;;;4196923;28;20186;-75
2022/07/12 02:09:30;;;;;;;6.30;3.87;;;11.10;99.90;;;;;;4196814;28;20242;-75
2022/07/12 02:11:31;;;;;;;4.53;4.00;;;11.00;99.90;;;;;;4196204;28;20208;-75
2022/07/12 02:13:31;;;;;;;4.13;3.67;;;11.10;99.90;;;;;;4196872;28;20187;-76
2022/07/12 02:15:32;;;;;;;5.33;3.67;;;11.10;99.90;;;;;;4196940;28;20172;-76
2022/07/12 02:17:33;;;;;;;4.37;3.50;;;11.10;99.90;;;;;;4196769;28;20654;-76
2022/07/12 02:19:33;;;;;;;4.30;3.37;;;11.00;99.90;;;;;;4196662;28;20187;-76
2022/07/12 02:21:34;;;;;;;3.67;2.93;;;11.00;99.90;;;;;;4159621;28;1063853;-76
2022/07/12 02:23:35;;;;;;;3.93;3.27;;;11.00;99.90;;;;;;4194709;28;21109;-76
2022/07/12 02:25:35;;;;;;;6.00;4.00;;;11.00;99.90;;;;;;4213759;28;20198;-76
2022/07/12 02:27:39;;;;;;;3.60;3.23;;;11.00;99.90;;;;;;4214120;28;20183;-76
2022/07/12 02:29:41;;;;;;;3.47;3.10;;;11.00;99.90;;;;;;4214069;28;20187;-76
2022/07/12 02:31:42;;;;;;;4.87;3.23;;;10.90;99.90;;;;;;4213345;28;20210;-75
2022/07/12 02:33:42;;;;;;;4.10;3.70;;;10.90;99.90;;;;;;4212574;28;20203;-76
2022/07/12 02:35:43;;;;;;;4.23;3.60;;;10.90;99.90;;;;;;4214133;28;20193;-75
2022/07/12 02:37:43;;;;;;;4.20;3.17;;;10.90;99.90;;;;;;4214197;28;20179;-76
2022/07/12 02:39:44;;;;;;;3.30;3.00;;;10.90;99.90;;;;;;4213872;28;20214;-76
2022/07/12 02:41:44;;;;;;;5.60;3.40;;;10.90;99.90;;;;;;4213096;28;20228;-76
2022/07/12 02:43:45;;;;;;;4.03;3.30;;;10.90;99.90;;;;;;4213975;28;20602;-76
2022/07/12 02:45:46;;;;;;;4.23;3.50;;;10.90;99.90;;;;;;4213971;28;20182;-76
2022/07/12 02:47:46;;;;;;;4.83;3.73;;;10.80;99.90;;;;;;4213764;28;20576;-76
2022/07/12 02:49:47;;;;;;;4.30;3.83;;;10.80;99.90;;;;;;4207733;28;20205;-76
2022/07/12 02:51:47;;;;;;;4.50;3.53;;;10.80;99.90;;;;;;4212155;28;20215;-75
2022/07/12 02:53:48;;;;;;;3.97;3.57;;;10.80;99.90;;;;;;4213420;28;20199;-75
2022/07/12 02:55:48;;;;;;;3.97;3.40;;;10.80;99.90;;;;;;4213737;28;20254;-75
2022/07/12 02:57:49;;;;;;;4.87;3.53;;;10.80;99.90;;;;;;4213628;28;20179;-75
2022/07/12 02:59:50;;;;;;;5.03;4.17;;;10.80;99.90;;;;;;4213818;28;20183;-75
2022/07/12 03:01:50;;;;;;;5.10;3.50;;;10.80;99.90;;;;;;4212935;28;20193;-74
2022/07/12 03:03:51;;;;;;;4.13;3.10;;;10.80;99.90;;;;;;4213619;28;20205;-75
2022/07/12 03:05:51;;;;;;;4.33;3.57;;;10.70;99.90;;;;;;4213606;28;20318;-74
2022/07/12 03:07:52;;;;;;;3.53;3.20;;;10.60;99.90;;;;;;4213970;28;20269;-75
2022/07/12 03:09:53;;;;;;;4.00;3.53;;;10.60;99.90;;;;;;4213474;28;20597;-75
2022/07/12 03:11:53;;;;;;;4.03;3.57;;;10.70;99.90;;;;;;4212851;28;20259;-74
2022/07/12 03:13:54;;;;;;;4.13;3.50;;;10.70;99.90;;;;;;4212247;28;20248;-77
2022/07/12 03:15:54;;;;;;;5.67;3.47;;;10.70;99.90;;;;;;4213256;28;20185;-74
2022/07/12 03:17:56;;;;;;;6.10;3.33;;;10.70;99.90;;;;;;4213410;28;20182;-74
2022/07/12 03:19:56;;;;;;;5.43;3.30;;;10.60;99.90;;;;;;4213448;28;20241;-74
2022/07/12 03:21:57;;;;;;;4.90;3.40;;;10.60;99.90;;;;;;4214204;28;20201;-74
2022/07/12 03:23:58;;;;;;;4.80;3.90;;;10.70;99.90;;;;;;4213858;28;20206;-75
2022/07/12 03:25:58;;;;;;;4.37;3.17;;;10.60;99.90;;;;;;4213626;28;20184;-75
2022/07/12 03:27:59;;;;;;;5.93;3.40;;;10.60;99.90;;;;;;4213639;28;20239;-74
2022/07/12 03:30:00;;;;;;;4.37;3.97;;;10.50;99.90;;;;;;4213217;28;20258;-75
2022/07/12 03:32:01;;;;;;;4.87;3.53;;;10.50;99.90;;;;;;4212524;28;20213;-74
2022/07/12 03:34:01;;;;;;;6.10;4.27;;;10.50;99.90;;;;;;4213560;28;20620;-74
2022/07/12 03:36:02;;;;;;;4.83;3.87;;;10.60;99.90;;;;;;4213367;28;20182;-74
2022/07/12 03:38:03;;;;;;;6.17;3.83;;;10.60;99.90;;;;;;4205245;28;20178;-74
2022/07/12 03:40:04;;;;;;;4.20;3.37;;;10.60;99.90;;;;;;4196242;28;20252;-74
2022/07/12 03:42:04;;;;;;;4.40;4.00;;;10.60;99.90;;;;;;4195548;28;20182;-74
2022/07/12 03:44:06;;;;;;;3.90;3.17;;;10.60;99.90;;;;;;4195970;28;20286;-74
2022/07/12 03:46:06;;;;;;;4.33;3.30;;;10.60;99.90;;;;;;4196205;28;20270;-75
2022/07/12 03:48:07;;;;;;;4.73;3.63;;;10.50;99.90;;;;;;4196487;28;20195;-75
2022/07/12 03:50:12;;;;;;;3.80;3.40;;;10.50;99.90;;;;;;4196274;28;20213;-75
2022/07/12 03:52:12;;;;;;;4.10;3.10;;;10.50;99.90;;;;;;4195306;28;20286;-75
2022/07/12 03:54:13;;;;;;;3.70;3.40;;;10.50;99.90;;;;;;4195987;28;20735;-75
2022/07/12 03:57:13;;;;;;;3.80;3.10;;;10.40;99.90;;;;;;4196092;28;20182;-75
2022/07/12 03:58:34;;;;;;;3.33;3.03;;;10.40;99.90;;;;;;4195964;28;20213;-75
2022/07/12 04:00:34;;;;;;;3.43;2.90;;;10.50;99.90;;;;;;4196056;28;20184;-75
2022/07/12 04:02:35;;;;;;;5.20;3.70;;;10.50;99.90;;;;;;4195295;28;20270;-75
2022/07/12 04:04:36;;;;;;;3.50;3.20;;;10.50;99.90;;;;;;4196196;28;20249;-75
2022/07/12 04:06:36;;;;;;;4.37;3.20;;;10.60;99.90;;;;;;4196364;28;20190;-75
2022/07/12 04:08:37;;;;;;;4.40;3.73;;;10.60;99.90;;;;;;4196032;28;20657;-75
2022/07/12 04:10:37;;;;;;;4.43;3.30;;;10.50;99.90;;;;;;4195912;28;20210;-75
2022/07/12 04:12:38;;;;;;;4.10;3.40;;;10.50;99.90;;;;;;4195210;28;20661;-74
2022/07/12 04:14:38;;;;;;;3.83;3.23;;;10.50;99.90;;;;;;4196006;28;20203;-75
2022/07/12 04:16:39;;;;;;;4.07;3.50;;;10.50;99.90;;;;;;4195716;28;20206;-74
2022/07/12 04:18:39;;;;;;;5.43;3.70;;;10.50;99.90;;;;;;4195786;28;20848;-74
2022/07/12 04:20:40;;;;;;;5.13;3.57;;;10.50;99.90;;;;;;4194113;28;20650;-74
2022/07/12 04:22:41;;;;;;;4.93;3.40;;;10.50;99.90;;;;;;4195709;28;20633;-74
2022/07/12 04:24:41;;;;;;;3.47;3.10;;;10.50;99.90;;;;;;4197528;28;20211;-74
2022/07/12 04:26:42;;;;;;;3.77;3.10;;;10.40;99.90;;;;;;4199222;28;20267;-74
2022/07/12 04:28:42;;;;;;;5.53;3.43;;;10.50;99.90;;;;;;4199139;28;20283;-74
2022/07/12 04:30:44;;;;;;;4.97;3.47;;;10.50;99.90;;;;;;4198728;28;20209;-74
2022/07/12 04:32:44;;;;;;;3.70;3.10;;;10.50;99.90;;;;;;4197653;28;20186;-74
2022/07/12 04:34:45;;;;;;;5.13;3.23;;;10.50;99.90;;;;;;4199191;28;20216;-74
2022/07/12 04:36:47;;;;;;;5.10;3.80;;;10.50;99.90;;;;;;4199044;28;20183;-73
2022/07/12 04:38:47;;;;;;;4.23;3.00;;;10.60;99.90;;;;;;4198788;28;20554;-73
2022/07/12 04:40:48;;;;;;;3.70;3.30;;;10.50;99.90;;;;;;4209999;28;20201;-73
2022/07/12 04:42:48;;;;;;;4.40;3.23;;;10.60;99.90;;;;;;4215758;28;20690;-75
2022/07/12 04:44:49;;;;;;;3.63;3.00;;;10.50;99.90;;;;;;4215555;28;20233;-73
2022/07/12 04:46:49;;;;;;;4.10;3.27;;;10.50;99.90;;;;;;4215572;28;20175;-73
2022/07/12 04:48:50;;;;;;;5.83;4.10;;;10.50;99.90;;;;;;4215646;28;20175;-74
2022/07/12 04:50:51;;;;;;;6.50;3.40;;;10.60;99.90;;;;;;4215066;28;20199;-74
2022/07/12 04:52:51;;;;;;;3.90;3.30;;;10.60;99.90;;;;;;4215385;28;20202;-74
2022/07/12 04:54:52;;;;;;;5.13;4.00;;;10.60;99.90;;;;;;4215584;28;20198;-73
2022/07/12 04:56:52;;;;;;;5.80;3.60;;;10.70;99.90;;;;;;4215809;28;20176;-74
2022/07/12 04:58:53;;;;;;;3.97;3.57;;;10.60;99.90;;;;;;4215518;28;20247;-74
2022/07/12 05:00:53;;;;;;;4.77;3.97;;;10.60;99.90;;;;;;4214974;28;20175;-74
2022/07/12 05:02:54;;;;;;;4.90;3.70;;;10.70;99.90;;;;;;4214238;28;20337;-74
2022/07/12 05:04:54;;;;;;;3.50;3.10;;;10.70;99.90;;;;;;4214276;28;20708;-74
2022/07/12 05:06:55;;;;;;;4.20;3.67;;;10.70;99.90;;;;;;4215559;28;20681;-74
2022/07/12 05:08:56;;;;;;;5.53;3.27;;;10.80;99.90;;;;;;4214377;28;20696;-73
2022/07/12 05:10:56;;;;;;;5.37;3.50;;;10.80;99.90;;;;;;4211622;28;20206;-74
2022/07/12 05:12:57;;;;;;;5.50;3.80;;;10.90;99.90;;;;;;4212200;28;20263;-74
2022/07/12 05:14:57;;;;;;;4.93;4.10;;;10.90;99.90;;;;;;4213567;28;20543;-74
2022/07/12 05:16:58;;;;;;;3.93;3.50;;;10.90;99.90;;;;;;4215006;28;20650;-73
2022/07/12 05:18:59;;;;;;;4.40;3.93;;;11.00;99.90;;;;;;4215619;28;20209;-74
2022/07/12 05:21:01;;;;;;;5.70;3.90;;;11.00;99.90;;;;;;4216169;28;20202;-74
2022/07/12 05:23:01;;;;;;;4.67;3.67;;;11.10;99.90;;;;;;4215356;28;20210;-74
2022/07/12 05:25:02;;;;;;;5.17;4.40;;;11.10;99.90;;;;;;4215269;28;20270;-74
2022/07/12 05:27:04;;;;;;;4.70;3.77;;;11.10;99.90;;;;;;4213940;28;20191;-74
2022/07/12 05:29:04;;;;;;;4.20;3.77;;;11.20;99.90;;;;;;4215226;28;20175;-74
2022/07/12 05:31:05;;;;;;;4.10;3.70;;;11.30;99.90;;;;;;4214528;28;20828;-74
2022/07/12 05:33:05;;;;;;;4.63;3.37;;;11.30;99.90;;;;;;4214973;28;20179;-74
2022/07/12 05:35:07;;;;;;;5.90;4.17;;;11.30;99.90;;;;;;4214931;28;20195;-74
2022/07/12 05:37:08;;;;;;;5.60;4.37;;;11.40;99.90;;;;;;4214955;28;20170;-74
2022/07/12 05:39:08;;;;;;;4.33;3.70;;;11.40;99.90;;;;;;4204397;28;20650;-74
2022/07/12 05:41:09;;;;;;;4.63;3.47;;;11.50;99.90;;;;;;4197556;28;20180;-74
2022/07/12 05:43:09;;;;;;;6.53;3.90;;;11.50;99.90;;;;;;4198055;28;20183;-72
2022/07/12 05:45:10;;;;;;;4.57;3.70;;;11.50;99.90;;;;;;4198087;28;20187;-73
2022/07/12 05:47:11;;;;;;;5.30;4.33;;;11.60;99.90;;;;;;4198126;28;20186;-73
2022/07/12 05:49:12;;;;;;;6.87;4.87;;;11.60;99.90;;;;;;4196668;28;20708;-73
2022/07/12 05:53:31;;;;;;;18.47;9.57;;;11.90;99.90;;;;;;4197931;28;20198;-73
2022/07/12 05:55:32;;;;;;;20.43;12.13;;;12.00;99.90;;;;;;4196637;28;20254;-73
2022/07/12 05:57:32;;;;;;;18.33;9.73;;;12.00;99.90;;;;;;4197930;28;20595;-73
2022/07/12 05:59:35;;;;;;;17.40;10.17;;;12.10;99.90;;;;;;4198226;28;20247;-72
2022/07/12 06:01:35;;;;;;;17.70;10.30;;;12.20;99.90;;;;;;4197088;28;20559;-73
2022/07/12 06:03:36;;;;;;;20.60;11.23;;;12.30;99.90;;;;;;4196334;28;20199;-74
2022/07/12 06:05:37;;;;;;;21.37;12.13;;;12.30;99.90;;;;;;4197600;28;20183;-74
2022/07/12 06:07:37;;;;;;;20.53;11.97;;;12.40;99.90;;;;;;4197833;28;20198;-73
2022/07/12 06:09:38;;;;;;;22.83;12.37;;;12.40;99.90;;;;;;4197725;28;20187;-74
2022/07/12 06:11:38;;;;;;;19.20;11.23;;;12.50;99.90;;;;;;4196995;28;20203;-75
2022/07/12 06:13:39;;;;;;;21.53;12.13;;;12.70;99.90;;;;;;4197584;28;20556;-74
2022/07/12 06:15:39;;;;;;;19.70;12.00;;;12.70;99.90;;;;;;4196243;28;20186;-74
2022/07/12 06:17:40;;;;;;;22.60;12.23;;;12.80;99.90;;;;;;4197258;28;20203;-74
2022/07/12 06:19:41;;;;;;;14.47;9.13;;;12.80;99.90;;;;;;4196205;28;20241;-74
2022/07/12 06:21:41;;;;;;;16.90;9.57;;;13.00;99.90;;;;;;4195395;28;20290;-74
2022/07/12 06:23:42;;;;;;;12.37;6.97;;;13.10;99.90;;;;;;4197502;28;20751;-74
2022/07/12 06:25:42;;;;;;;13.57;8.23;;;13.30;99.90;;;;;;4196618;28;20188;-74
2022/07/12 06:27:43;;;;;;;12.20;7.63;;;13.40;99.90;;;;;;4197081;28;20255;-74
2022/07/12 06:29:47;;;;;;;10.50;6.93;;;13.40;99.90;;;;;;4197375;28;20164;-74
2022/07/12 06:31:48;;;;;;;10.90;6.97;;;13.50;99.90;;;;;;4196571;28;20214;-74
2022/07/12 06:33:49;;;;;;;8.50;6.17;;;13.50;99.90;;;;;;4195784;28;20678;-74
2022/07/12 06:35:49;;;;;;;12.00;6.90;;;13.70;99.90;;;;;;4197240;28;20176;-74
2022/07/12 06:37:50;;;;;;;10.47;6.60;;;13.70;99.90;;;;;;4197103;28;20172;-73
2022/07/12 06:39:50;;;;;;;11.47;7.33;;;14.00;99.90;;;;;;4197164;28;20179;-74
2022/07/12 06:41:51;;;;;;;16.37;7.33;;;14.10;99.90;;;;;;4196716;28;20180;-74
2022/07/12 06:43:51;;;;;;;9.67;5.90;;;14.10;99.90;;;;;;4197250;28;20260;-74
2022/07/12 06:45:53;;;;;;;10.33;6.73;;;14.30;99.90;;;;;;4197094;28;20176;-73
2022/07/12 06:47:53;;;;;;;10.40;6.47;;;14.30;99.90;;;;;;4195895;28;20205;-73
2022/07/12 06:49:54;;;;;;;10.90;5.57;;;14.40;99.90;;;;;;4196992;28;20259;-73
2022/07/12 06:51:55;;;;;;;4.93;4.20;;;14.60;99.50;;;;;;4196338;28;20191;-74
2022/07/12 06:53:55;;;;;;;5.17;3.60;;;14.90;97.90;;;;;;4197084;28;20265;-74
2022/07/12 06:55:57;;;;;;;3.90;3.50;;;15.20;95.60;;;;;;4197035;28;20183;-74
2022/07/12 06:57:57;;;;;;;5.97;4.53;;;15.30;95.30;;;;;;4196141;28;20643;-74
2022/07/12 06:59:58;;;;;;;3.73;3.30;;;15.30;95.70;;;;;;4200781;28;20171;-78
2022/07/12 07:01:58;;;;;;;2.83;2.63;;;15.50;95.30;;;;;;4207215;28;20208;-72
2022/07/12 07:03:59;;;;;;;3.90;3.03;;;15.80;92.20;;;;;;4208672;28;20207;-73
2022/07/12 07:06:00;;;;;;;2.77;2.53;;;15.90;91.40;;;;;;4208831;28;20167;-72
2022/07/12 07:08:01;;;;;;;3.90;2.57;;;16.20;90.80;;;;;;4207513;28;20186;-72
2022/07/12 07:10:01;;;;;;;3.67;2.43;;;16.10;90.70;;;;;;4210511;28;20195;-74
2022/07/12 07:12:03;;;;;;;3.93;2.93;;;16.20;88.90;;;;;;4208799;28;20265;-73
2022/07/12 07:14:04;;;;;;;2.23;2.03;;;16.30;89.60;;;;;;4208907;28;20194;-72
2022/07/12 07:16:05;;;;;;;3.03;2.00;;;16.50;88.20;;;;;;4208636;28;20190;-73
2022/07/12 07:18:06;;;;;;;4.03;2.20;;;16.60;81.70;;;;;;4209404;28;20539;-72
2022/07/12 07:20:10;;;;;;;2.70;2.03;;;16.60;80.30;;;;;;4207675;28;20307;-73
2022/07/12 07:22:12;;;;;;;2.47;2.27;;;16.80;79.60;;;;;;4207739;28;20178;-72
2022/07/12 07:24:13;;;;;;;3.50;2.33;;;17.00;80.50;;;;;;4208432;28;20205;-71
2022/07/12 07:26:13;;;;;;;3.57;2.40;;;16.80;81.10;;;;;;4208672;28;20606;-73
2022/07/12 07:28:14;;;;;;;2.43;2.20;;;16.90;79.80;;;;;;4206897;28;20187;-72
2022/07/12 07:32:34;;;;;;;3.30;3.10;;;17.30;79.40;;;;;;4208169;28;20252;-75
2022/07/12 07:34:34;;;;;;;2.80;2.60;;;17.30;79.60;;;;;;4207212;28;20761;-74
2022/07/12 07:36:35;;;;;;;2.20;2.00;;;17.30;70.40;;;;;;4208329;28;20260;-72
2022/07/12 07:38:35;;;;;;;5.00;4.70;;;17.50;70.60;;;;;;4207077;28;20183;-73
2022/07/12 07:40:36;;;;;;;3.90;3.60;;;17.60;68.30;;;;;;4207298;28;20194;-70
2022/07/12 07:42:36;;;;;;;2.00;1.90;;;17.70;66.70;;;;;;4207156;28;20658;-71
2022/07/12 07:44:37;;;;;;;3.20;1.80;;;17.90;69.20;;;;;;4208863;28;20198;-72
2022/07/12 07:46:38;;;;;;;3.07;1.90;;;18.00;65.20;;;;;;4208957;28;20563;-72
2022/07/12 07:48:38;;;;;;;2.60;2.40;;;18.00;64.90;;;;;;4207877;28;20186;-71
2022/07/12 07:50:39;;;;;;;2.30;1.90;;;18.00;65.20;;;;;;4209147;28;20254;-72
2022/07/12 07:52:39;;;;;;;2.47;2.27;;;18.20;65.10;;;;;;4208478;28;20772;-71
2022/07/12 07:54:40;;;;;;;2.40;2.20;;;18.30;63.60;;;;;;4208469;28;20286;-71
2022/07/12 07:56:41;;;;;;;2.67;1.80;;;18.40;63.50;;;;;;4208467;28;20553;-72
2022/07/12 07:58:41;;;;;;;1.80;1.70;;;18.40;65.90;;;;;;4208539;28;20183;-72
2022/07/12 08:00:42;;;;;;;2.93;2.13;;;18.40;64.50;;;;;;4208539;28;20175;-71
2022/07/12 08:02:43;;;;;;;2.57;2.37;;;18.40;62.70;;;;;;4208709;28;20187;-71
2022/07/12 08:04:43;;;;;;;2.50;2.10;;;18.60;63.00;;;;;;4207913;28;20230;-72
2022/07/12 08:06:45;;;;;;;3.17;2.97;;;18.40;62.70;;;;;;4208347;28;20187;-71
2022/07/12 08:08:45;;;;;;;5.23;4.80;;;18.50;62.60;;;;;;4207907;28;20185;-70
2022/07/12 08:10:48;;;;;;;3.07;2.03;;;18.60;63.20;;;;;;4207163;28;20649;-70
2022/07/12 08:12:49;;;;;;;2.70;2.27;;;18.70;62.50;;;;;;4207669;28;20755;-70
2022/07/12 08:14:49;;;;;;;2.07;1.87;;;18.80;62.10;;;;;;4207660;28;20198;-71
2022/07/12 08:16:50;;;;;;;2.50;2.30;;;18.90;64.20;;;;;;4205951;28;20182;-71
2022/07/12 08:18:50;;;;;;;2.50;2.00;;;18.80;61.80;;;;;;4208293;28;20187;-70
2022/07/12 08:20:51;;;;;;;2.60;2.40;;;18.90;61.20;;;;;;4207713;28;20565;-70
2022/07/12 08:22:51;;;;;;;2.47;2.30;;;19.00;59.90;;;;;;4207937;28;20837;-71
2022/07/12 08:24:52;;;;;;;4.47;4.17;;;19.00;59.00;;;;;;4207772;28;20210;-71
2022/07/12 08:26:52;;;;;;;2.33;2.10;;;19.00;59.00;;;;;;4207855;28;20277;-70
2022/07/12 08:28:53;;;;;;;2.93;2.73;;;19.10;59.20;;;;;;4208476;28;20183;-67
2022/07/12 08:30:53;;;;;;;2.63;2.40;;;19.30;58.60;;;;;;4206512;28;20218;-72
2022/07/12 08:32:57;;;;;;;2.27;2.07;;;19.50;58.10;;;;;;4207961;28;20220;-70
2022/07/12 08:34:58;;;;;;;2.43;1.73;;;19.50;60.20;;;;;;4208785;28;21735;-72
2022/07/12 08:36:58;;;;;;;10.60;9.80;;;19.70;57.80;;;;;;4207152;28;20187;-69
2022/07/12 08:38:59;;;;;;;2.70;2.50;;;19.80;56.60;;;;;;4207753;28;20186;-70
2022/07/12 08:40:59;;;;;;;2.50;2.30;;;19.60;57.90;;;;;;4207067;28;20186;-71
2022/07/12 08:43:00;;;;;;;3.33;3.13;;;19.60;58.00;;;;;;4207750;28;20247;-70
2022/07/12 08:45:01;;;;;;;3.60;2.37;;;19.70;56.90;;;;;;4207184;28;20187;-70
2022/07/12 08:47:01;;;;;;;2.33;1.90;;;19.70;56.50;;;;;;4207412;28;20210;-70
2022/07/12 08:49:07;;;;;;;3.10;2.33;;;20.00;56.10;;;;;;4208557;28;20187;-70
2022/07/12 08:51:12;;;;;;;2.30;2.10;;;20.30;56.70;;;;;;4209189;28;20206;-70
2022/07/12 08:53:13;;;;;;;2.40;2.20;;;20.50;57.10;;;;;;4210896;28;20255;-70
2022/07/12 08:55:30;;;;;;;2.40;2.20;;;20.70;55.40;;;;;;4210929;28;20178;-70
2022/07/12 08:57:31;;;;;;;7.03;6.53;;;20.90;54.50;;;;;;4210563;28;20178;-69
2022/07/12 08:59:32;;;;;;;2.63;2.20;;;20.60;52.10;;;;;;4210539;28;20179;-69
2022/07/12 09:01:50;;;;;;;8.10;7.70;;;20.40;53.20;;;;;;4210047;28;20229;-74
2022/07/12 09:04:09;;;;;;;2.07;1.87;;;20.20;53.10;;;;;;4209313;28;20203;-71
2022/07/12 09:06:11;;;;;;;2.00;1.90;;;20.10;53.80;;;;;;4209319;28;20190;-73
2022/07/12 09:08:11;;;;;;;2.97;2.30;;;19.80;54.00;;;;;;4210897;28;20179;-72
2022/07/12 09:10:13;;;;;;;2.50;2.30;;;20.10;54.40;;;;;;4211975;28;20546;-71
2022/07/12 09:12:23;;;;;;;2.83;2.63;;;20.20;53.60;;;;;;4209762;28;20252;-72
2022/07/12 09:14:26;;;;;;;2.07;1.90;;;20.30;53.00;;;;;;4211366;28;20571;-72
2022/07/12 09:16:27;;;;;;;6.27;5.77;;;20.60;54.70;;;;;;4211231;28;20553;-73
2022/07/12 09:18:28;;;;;;;2.97;2.33;;;20.80;52.80;;;;;;4211100;28;20182;-74
2022/07/12 09:20:31;;;;;;;2.20;2.00;;;20.70;52.70;;;;;;4210088;28;20198;-73
2022/07/12 09:22:31;;;;;;;2.77;2.20;;;20.90;53.30;;;;;;4210216;28;20256;-70
2022/07/12 09:24:32;;;;;;;2.40;2.10;;;20.90;50.60;;;;;;4211072;28;20734;-73
2022/07/12 09:26:33;;;;;;;3.27;2.00;;;20.80;50.70;;;;;;4210169;28;20193;-74
2022/07/12 09:28:34;;;;;;;3.10;2.27;;;20.80;51.30;;;;;;4212815;28;20555;-72
2022/07/12 09:30:37;;;;;;;3.20;3.00;;;21.10;52.30;;;;;;4214245;28;20183;-73
2022/07/12 09:37:39;;;;;;;4.80;3.70;;;21.60;49.10;;;;;;4214201;28;20186;-74
2022/07/12 09:39:41;;;;;;;2.87;2.67;;;21.60;47.90;;;;;;4213258;28;20185;-73
2022/07/12 09:41:42;;;;;;;2.53;2.33;;;21.80;46.00;;;;;;4212257;28;20566;-72
2022/07/12 09:43:43;;;;;;;2.10;1.90;;;21.40;47.60;;;;;;4214344;28;20277;-73
2022/07/12 09:45:47;;;;;;;2.23;2.03;;;21.30;47.40;;;;;;4214028;28;20194;-74
2022/07/12 09:47:49;;;;;;;2.20;2.00;;;20.90;48.60;;;;;;4213797;28;20387;-74
2022/07/12 09:49:51;;;;;;;2.83;2.63;;;21.40;48.60;;;;;;4214727;28;20179;-74
2022/07/12 09:51:56;;;;;;;3.30;3.07;;;21.90;47.30;;;;;;4214526;28;20198;-74
2022/07/12 09:53:59;;;;;;;4.70;2.47;;;21.80;47.40;;;;;;4213337;28;20713;-73
2022/07/12 09:56:05;;;;;;;2.30;2.13;;;21.90;46.60;;;;;;4213752;28;21401;-73
2022/07/12 09:58:08;;;;;;;59.77;56.57;;;22.00;45.00;;;;;;4213615;28;20231;-75
2022/07/12 10:00:11;;;;;;;9.03;8.40;;;21.80;45.20;;;;;;4212431;28;20190;-76
2022/07/12 10:02:15;;;;;;;3.17;2.17;;;21.80;45.70;;;;;;4212587;28;20182;-75
2022/07/12 10:04:21;;;;;;;6.17;5.83;;;21.90;44.70;;;;;;4213419;28;20211;-75
2022/07/12 10:06:27;;;;;;;2.47;2.20;;;22.10;46.10;;;;;;4214196;28;20276;-73
2022/07/12 10:08:29;;;;;;;3.67;2.07;;;22.20;43.60;;;;;;4212696;28;20179;-73
2022/07/12 10:10:31;;;;;;;2.23;2.13;;;22.20;44.60;;;;;;4214527;28;20228;-74
2022/07/12 10:12:32;;;;;;;2.43;2.23;;;22.50;44.30;;;;;;4212029;28;20210;-74
2022/07/12 10:14:33;;;;;;;3.40;2.30;;;22.60;44.30;;;;;;4213957;28;20199;-71
2022/07/12 10:16:36;;;;;;;3.60;2.87;;;23.10;43.20;;;;;;4213039;28;20182;-72
2022/07/12 10:18:36;;;;;;;7.83;7.40;;;23.00;41.90;;;;;;4211592;28;20185;-71
2022/07/12 10:20:43;;;;;;;6.20;5.70;;;22.50;43.40;;;;;;4210430;28;20205;-72
2022/07/12 10:22:44;;;;;;;3.33;3.13;;;22.90;41.70;;;;;;4209179;28;20228;-72
2022/07/12 10:24:46;;;;;;;1.90;1.70;;;23.30;39.10;;;;;;4209734;28;20201;-72
2022/07/12 10:26:47;;;;;;;2.10;2.00;;;23.30;39.90;;;;;;4210032;28;20708;-72
2022/07/12 10:29:05;;;;;;;3.77;2.70;;;23.20;39.60;;;;;;4208903;28;20179;-72
2022/07/12 10:31:07;;;;;;;8.13;7.67;;;23.60;39.50;;;;;;4208504;28;20700;-73
2022/07/12 10:33:16;;;;;;;3.40;3.20;;;23.70;40.40;;;;;;4209806;28;20206;-73
2022/07/12 10:35:19;;;;;;;6.73;6.33;;;24.20;39.10;;;;;;4209156;28;20175;-71
2022/07/12 10:37:20;;;;;;;5.03;3.03;;;24.20;38.80;;;;;;4207977;28;20183;-71
2022/07/12 10:39:27;;;;;;;2.93;2.70;;;24.20;38.40;;;;;;4209708;28;20183;-73